Time;durP1;ratioP1;P1;durP2;ratioP2;P2;SDS_P1;SDS_P2;PMS_P1;PMS_P2;Temp;Humidity;BMP_temperature;BMP_pressure;BME280_temperature;BME280_humidity;BME280_pressure;Samples;Min_cycle;Max_cycle;Signal;HPM_P1;HPM_P2
2022/09/10 11:51:24;;;;;;;2.87;1.50;;;;;;;21.51;94.98;100119.00;5378642;23;20489;-74
2022/09/10 11:53:54;;;;;;;2.00;1.57;;;;;;;23.77;80.61;100126.63;4936683;29;20461;-75
2022/09/10 11:56:51;;;;;;;3.07;1.67;;;;;;;22.63;78.52;100114.38;4934233;29;20481;-76
2022/09/10 11:59:34;;;;;;;3.77;2.67;;;;;;;21.97;84.90;100115.41;4933613;29;20839;-74
2022/09/10 12:02:21;;;;;;;2.03;1.50;;;;;;;21.16;94.72;100118.56;4936577;29;20531;-72
2022/09/10 12:04:57;;;;;;;2.03;1.37;;;;;;;20.96;98.06;100108.63;4919558;29;20454;-72
2022/09/10 12:07:43;;;;;;;2.43;1.63;;;;;;;23.23;79.57;100110.19;4933757;29;20465;-71
2022/09/10 12:10:19;;;;;;;3.20;1.40;;;;;;;23.77;76.33;100115.63;4934208;29;20489;-71
2022/09/10 12:12:49;;;;;;;4.50;1.97;;;;;;;24.48;71.17;100096.03;4933518;29;20453;-71
2022/09/10 12:15:18;;;;;;;3.50;1.23;;;;;;;24.17;73.13;100105.84;4933595;29;20548;-72
2022/09/10 12:17:48;;;;;;;3.30;1.40;;;;;;;25.00;67.51;100105.09;4933419;29;20492;-72
2022/09/10 12:20:21;;;;;;;4.80;1.47;;;;;;;25.61;63.29;100106.50;4935773;29;20532;-72
2022/09/10 12:22:55;;;;;;;2.67;1.00;;;;;;;24.12;70.52;100106.34;4934881;29;20958;-71
2022/09/10 12:25:29;;;;;;;2.40;0.70;;;;;;;23.72;72.75;100100.44;4934827;29;20465;-73
2022/09/10 12:27:58;;;;;;;2.00;0.93;;;;;;;22.77;77.65;100098.38;4934218;29;20452;-73
2022/09/10 12:31:01;;;;;;;1.50;0.93;;;;;;;21.77;86.58;100091.81;4932544;29;20559;-73
2022/09/10 12:34:15;;;;;;;1.90;1.00;;;;;;;21.13;89.98;100096.09;4934447;29;20532;-72
2022/09/10 12:37:19;;;;;;;2.93;0.80;;;;;;;20.77;92.33;100087.59;4928460;29;20485;-72
2022/09/10 12:39:48;;;;;;;2.50;1.20;;;;;;;20.57;93.51;100086.69;4856762;29;20501;-71
2022/09/10 12:42:35;;;;;;;1.40;0.70;;;;;;;20.41;93.76;100087.22;4863821;29;20518;-70
2022/09/10 12:45:02;;;;;;;2.63;1.00;;;;;;;20.54;93.27;100084.22;4858052;29;20505;-71
2022/09/10 12:47:49;;;;;;;1.83;1.10;;;;;;;20.53;91.85;100086.09;4859349;29;20657;-71
2022/09/10 12:50:39;;;;;;;1.50;0.73;;;;;;;20.94;90.09;100094.19;4864706;29;20629;-72
2022/09/10 12:53:36;;;;;;;3.03;0.90;;;;;;;20.83;87.66;100090.63;4887607;29;20459;-72
2022/09/10 12:56:21;;;;;;;1.50;1.00;;;;;;;20.77;89.56;100076.66;4885086;29;20488;-72
2022/09/10 12:59:10;;;;;;;1.93;1.00;;;;;;;20.83;88.08;100076.06;4871403;29;20456;-72
2022/09/10 13:01:42;;;;;;;2.93;0.90;;;;;;;20.39;91.61;100079.13;4877211;29;20472;-75
2022/09/10 13:04:23;;;;;;;1.53;0.90;;;;;;;20.17;94.61;100080.25;4890185;29;20462;-75
2022/09/10 13:06:53;;;;;;;1.60;1.10;;;;;;;20.27;96.11;100065.75;4872990;29;20448;-73
2022/09/10 13:09:22;;;;;;;1.60;1.10;;;;;;;20.27;94.13;100073.94;4884440;29;20499;-73
2022/09/10 13:11:54;;;;;;;1.33;1.00;;;;;;;20.74;93.21;100087.88;4881827;29;20471;-74
2022/09/10 13:14:26;;;;;;;1.97;0.90;;;;;;;20.95;93.28;100088.59;4906084;29;20549;-72
2022/09/10 13:16:54;;;;;;;2.00;1.17;;;;;;;20.99;91.85;100095.53;4915632;29;20497;-71
2022/09/10 13:19:50;;;;;;;1.67;0.90;;;;;;;21.30;89.94;100081.69;4916111;29;20450;-70
2022/09/10 13:22:54;;;;;;;1.57;1.00;;;;;;;22.75;80.57;100087.59;4916216;29;20465;-72
2022/09/10 13:25:27;;;;;;;1.77;0.80;;;;;;;22.57;77.65;100089.44;4917060;29;20482;-71
2022/09/10 13:27:55;;;;;;;2.53;0.70;;;;;;;22.84;78.22;100080.28;4916866;29;20442;-73
2022/09/10 13:30:23;;;;;;;2.50;0.80;;;;;;;23.77;73.27;100080.72;4916081;29;21006;-72
2022/09/10 13:32:54;;;;;;;1.50;0.80;;;;;;;26.41;61.24;100072.47;4914799;29;20983;-72
2022/09/10 13:35:58;;;;;;;2.70;0.70;;;;;;;27.40;54.51;100067.16;4916464;29;20442;-72
2022/09/10 13:38:44;;;;;;;2.80;0.73;;;;;;;28.04;52.31;100058.38;4838017;29;21065;-73
2022/09/10 13:41:38;;;;;;;2.07;0.70;;;;;;;26.56;53.76;100065.19;4841757;29;20487;-74
2022/09/10 13:44:20;;;;;;;1.93;0.70;;;;;;;26.87;54.78;100060.69;4843271;29;20464;-75
2022/09/10 13:46:52;;;;;;;1.20;0.60;;;;;;;26.00;56.72;100056.09;4821909;29;20508;-74
2022/09/10 13:49:28;;;;;;;1.10;0.70;;;;;;;24.35;64.29;100049.72;4839921;29;20459;-74
2022/09/10 13:51:58;;;;;;;1.20;0.73;;;;;;;22.88;72.23;100040.50;4855375;29;20487;-74
2022/09/10 13:54:33;;;;;;;1.20;0.80;;;;;;;22.39;75.56;100043.63;4856291;29;20523;-74
2022/09/10 13:57:06;;;;;;;1.20;0.70;;;;;;;23.82;66.30;100039.00;4858126;29;20476;-74
2022/09/10 13:59:36;;;;;;;1.50;0.70;;;;;;;24.50;60.99;100038.06;4842560;29;20433;-73
2022/09/10 14:02:03;;;;;;;1.57;0.70;;;;;;;22.97;67.18;100045.03;4858947;29;20471;-73
2022/09/10 14:04:34;;;;;;;1.47;0.80;;;;;;;22.08;71.63;100026.59;4860495;29;20445;-74
2022/09/10 14:07:05;;;;;;;1.30;0.80;;;;;;;22.58;70.18;100028.03;4845914;29;20787;-74
2022/09/10 14:09:33;;;;;;;2.40;0.70;;;;;;;22.37;70.17;100033.84;4860736;29;20844;-75
2022/09/10 14:12:03;;;;;;;1.93;0.77;;;;;;;21.75;76.37;100034.41;4861360;29;20499;-74
2022/09/10 14:14:38;;;;;;;1.83;0.80;;;;;;;22.02;74.73;100032.69;4915784;29;21001;-73
2022/09/10 14:17:08;;;;;;;1.20;0.90;;;;;;;21.90;77.84;100037.53;4938892;29;20480;-73
2022/09/10 14:19:42;;;;;;;2.53;1.47;;;;;;;22.80;71.83;100040.44;4938963;29;20801;-73
2022/09/10 14:22:15;;;;;;;2.40;1.40;;;;;;;22.07;76.26;100025.75;4939660;29;20924;-77
2022/09/10 14:24:48;;;;;;;2.37;1.00;;;;;;;21.97;78.01;100035.88;4938335;29;20463;-75
2022/09/10 14:27:18;;;;;;;1.30;0.70;;;;;;;21.72;78.00;100029.22;4939546;29;20823;-74
2022/09/10 14:29:46;;;;;;;2.70;1.60;;;;;;;21.35;79.99;100031.94;4938858;29;20473;-73
2022/09/10 14:32:18;;;;;;;1.53;1.00;;;;;;;21.14;81.10;100038.47;4937993;29;20457;-74
2022/09/10 14:34:46;;;;;;;1.80;0.80;;;;;;;21.08;82.54;100035.44;4938476;29;20445;-74
2022/09/10 14:37:31;;;;;;;1.73;1.00;;;;;;;20.90;82.81;100036.16;4938381;29;20507;-74
2022/09/10 14:40:02;;;;;;;1.23;0.93;;;;;;;20.59;85.68;100044.50;4938189;29;20507;-75
2022/09/10 14:42:32;;;;;;;1.73;1.00;;;;;;;20.35;86.01;100031.22;4939977;29;20434;-73
2022/09/10 14:45:01;;;;;;;1.23;0.77;;;;;;;20.27;85.95;100035.66;4939757;29;20484;-74
2022/09/10 14:47:31;;;;;;;1.50;0.90;;;;;;;20.20;87.35;100029.88;4939952;29;20550;-74
2022/09/10 14:50:27;;;;;;;1.40;0.87;;;;;;;20.25;88.64;100029.47;4941646;29;20515;-73
2022/09/10 14:52:54;;;;;;;1.25;0.90;;;;;;;20.15;89.97;100026.72;4941826;29;20444;-74
2022/09/10 14:55:22;;;;;;;1.87;0.90;;;;;;;20.21;90.87;100028.88;4937329;29;20207;-74
2022/09/10 14:57:50;;;;;;;3.20;1.00;;;;;;;20.16;92.15;100040.22;4938517;29;20485;-74
2022/09/10 15:00:18;;;;;;;1.73;1.13;;;;;;;19.21;100.00;100062.34;4937996;29;20469;-75
2022/09/10 15:02:45;;;;;;;2.23;1.07;;;;;;;18.00;100.00;100062.50;4940935;29;20589;-74
2022/09/10 15:05:13;;;;;;;3.53;1.60;;;;;;;17.47;100.00;100070.38;4938132;29;20445;-75
2022/09/10 15:07:41;;;;;;;1.52;1.25;;;;;;;17.25;100.00;100080.25;4938750;29;20252;-75
2022/09/10 15:10:08;;;;;;;3.25;1.70;;;;;;;17.20;100.00;100087.00;4937606;29;20236;-73
2022/09/10 15:12:36;;;;;;;6.18;1.80;;;;;;;17.17;100.00;100088.13;4938990;29;20205;-73
2022/09/10 15:15:03;;;;;;;2.25;2.05;;;;;;;17.25;100.00;100112.91;4937283;29;20202;-73
2022/09/10 15:17:31;;;;;;;2.65;1.75;;;;;;;17.19;100.00;100099.75;4937122;29;20229;-74
2022/09/10 15:19:58;;;;;;;3.55;1.83;;;;;;;16.95;100.00;100118.84;4937146;29;20203;-76
2022/09/10 15:22:26;;;;;;;1.90;1.10;;;;;;;16.63;100.00;100126.69;4938313;29;20237;-74
2022/09/10 15:24:54;;;;;;;1.75;1.27;;;;;;;16.51;100.00;100136.63;4937247;29;20205;-74
2022/09/10 15:27:21;;;;;;;2.42;1.00;;;;;;;16.59;100.00;100130.63;4937271;29;20212;-73
2022/09/10 15:29:48;;;;;;;2.22;1.20;;;;;;;16.71;100.00;100132.44;4936967;29;20299;-74
2022/09/10 15:32:14;;;;;;;2.17;1.25;;;;;;;16.65;100.00;100116.56;4936942;29;20256;-74
2022/09/10 15:34:42;;;;;;;1.77;0.90;;;;;;;16.63;100.00;100126.69;4937419;29;20208;-75
2022/09/10 15:37:09;;;;;;;1.85;1.00;;;;;;;16.95;100.00;100134.28;4937920;29;20240;-74
2022/09/10 15:39:37;;;;;;;2.00;1.13;;;;;;;17.09;100.00;100135.00;4931485;29;20269;-74
2022/09/10 15:42:04;;;;;;;2.85;1.00;;;;;;;17.24;100.00;100141.09;4935730;29;20313;-74
2022/09/10 15:44:32;;;;;;;3.00;1.08;;;;;;;17.69;100.00;100130.28;4939829;29;20638;-74
2022/09/10 15:46:59;;;;;;;2.85;1.38;;;;;;;18.00;100.00;100119.72;4939577;29;20201;-74
2022/09/10 15:49:25;;;;;;;1.95;1.15;;;;;;;18.17;100.00;100106.56;4939259;29;20273;-74
2022/09/10 15:51:53;;;;;;;2.58;1.30;;;;;;;18.38;100.00;100107.50;4939655;29;20236;-72
2022/09/10 15:54:20;;;;;;;2.30;1.00;;;;;;;18.44;100.00;100104.28;4939812;29;20272;-73
2022/09/10 15:56:47;;;;;;;2.88;1.08;;;;;;;18.75;100.00;100101.72;4940250;29;20206;-74
2022/09/10 15:59:15;;;;;;;2.42;1.08;;;;;;;18.92;100.00;100092.13;4930255;29;20269;-74
2022/09/10 16:01:41;;;;;;;2.15;1.35;;;;;;;18.86;100.00;100089.91;4938963;29;20341;-74
2022/09/10 16:04:08;;;;;;;1.80;1.33;;;;;;;18.71;100.00;100095.66;4939795;29;20207;-70
2022/09/10 16:06:38;;;;;;;2.40;1.17;;;;;;;18.86;100.00;100095.38;4937107;29;20205;-71
2022/09/10 16:09:07;;;;;;;2.22;1.30;;;;;;;18.78;100.00;100095.19;4938640;29;20210;-71
2022/09/10 16:11:36;;;;;;;1.55;1.00;;;;;;;18.79;100.00;100099.63;4945520;29;20584;-74
2022/09/10 16:14:05;;;;;;;3.88;1.73;;;;;;;18.81;100.00;100093.03;4944343;29;20205;-72
2022/09/10 16:16:34;;;;;;;4.63;1.50;;;;;;;18.58;100.00;100099.53;4926479;29;20212;-72
2022/09/10 16:19:06;;;;;;;2.10;1.38;;;;;;;18.75;100.00;100093.53;4943745;29;20224;-73
2022/09/10 16:21:36;;;;;;;3.97;1.50;;;;;;;18.75;100.00;100107.19;4946466;29;20231;-73
2022/09/10 16:24:03;;;;;;;25.40;22.63;;;;;;;18.75;100.00;100107.19;4942165;29;20213;-71
2022/09/10 16:26:34;;;;;;;10.73;9.20;;;;;;;18.90;100.00;100110.50;4938476;29;20445;-72
2022/09/10 16:29:04;;;;;;;7.00;4.10;;;;;;;18.84;100.00;100116.50;4938483;29;20426;-72
2022/09/10 16:31:33;;;;;;;2.95;1.92;;;;;;;18.67;100.00;100109.69;4938882;29;20667;-72
2022/09/10 16:34:02;;;;;;;4.15;2.63;;;;;;;18.51;100.00;100107.38;4938892;29;20209;-71
2022/09/10 16:36:30;;;;;;;3.38;1.65;;;;;;;18.54;100.00;100108.00;4955905;29;20200;-73
2022/09/10 16:39:00;;;;;;;4.82;1.88;;;;;;;18.30;100.00;100112.75;4958143;29;20638;-73
2022/09/10 16:41:27;;;;;;;3.78;2.03;;;;;;;18.19;100.00;100127.25;4945361;29;20270;-71
2022/09/10 16:43:57;;;;;;;3.45;1.92;;;;;;;18.23;100.00;100125.16;4939088;29;20194;-71
2022/09/10 16:46:23;;;;;;;3.45;2.10;;;;;;;18.08;100.00;100129.97;4938097;29;20703;-72
2022/09/10 16:48:52;;;;;;;5.55;2.10;;;;;;;17.95;100.00;100141.00;4937649;29;20205;-72
2022/09/10 16:51:22;;;;;;;3.67;2.30;;;;;;;17.92;100.00;100155.72;4939813;29;20263;-71
2022/09/10 16:53:55;;;;;;;4.15;2.30;;;;;;;17.83;100.00;100150.16;4938605;29;20201;-72
2022/09/10 16:56:23;;;;;;;5.82;2.58;;;;;;;17.59;100.00;100171.97;4936726;29;20232;-72
2022/09/10 16:58:50;;;;;;;5.20;2.63;;;;;;;17.47;100.00;100168.38;4939151;29;20288;-73
2022/09/10 17:01:19;;;;;;;4.10;2.55;;;;;;;17.42;100.00;100168.72;4935851;29;20213;-72
2022/09/10 17:03:48;;;;;;;3.38;2.50;;;;;;;17.32;100.00;100180.44;4920862;29;20661;-74
2022/09/10 17:06:17;;;;;;;5.22;4.10;;;;;;;17.38;100.00;100188.13;4918958;29;20567;-72
2022/09/10 17:08:45;;;;;;;3.20;2.70;;;;;;;17.45;100.00;100192.13;4925277;29;20201;-74
2022/09/10 17:11:13;;;;;;;5.10;3.50;;;;;;;17.53;100.00;100186.09;4937307;29;20243;-70
2022/09/10 17:13:39;;;;;;;3.63;3.28;;;;;;;17.45;100.00;100194.84;4938117;29;20629;-74
2022/09/10 17:16:15;;;;;;;5.85;3.28;;;;;;;17.42;100.00;100192.38;4934817;29;20209;-71
2022/09/10 17:18:43;;;;;;;6.75;4.25;;;;;;;17.49;100.00;100189.03;4935440;29;20216;-73
2022/09/10 17:21:12;;;;;;;4.88;3.70;;;;;;;17.49;100.00;100190.91;4936936;29;20605;-71
2022/09/10 17:23:40;;;;;;;5.57;3.67;;;;;;;17.46;100.00;100194.75;4937511;29;20209;-73
2022/09/10 17:26:07;;;;;;;5.95;4.68;;;;;;;17.45;100.00;100203.00;4938383;29;20209;-73
2022/09/10 17:28:34;;;;;;;9.95;7.85;;;;;;;17.46;100.00;100200.19;4938017;29;20233;-71
2022/09/10 17:31:00;;;;;;;5.50;4.40;;;;;;;17.50;100.00;100201.69;4937852;29;20256;-70
2022/09/10 17:33:27;;;;;;;9.43;4.07;;;;;;;17.52;100.00;100207.00;4928009;29;20198;-71
2022/09/10 17:35:56;;;;;;;4.82;3.13;;;;;;;17.53;100.00;100206.03;4918368;29;20261;-70
2022/09/10 17:38:23;;;;;;;7.43;3.38;;;;;;;17.55;100.00;100209.50;4921286;29;20206;-73
2022/09/10 17:40:56;;;;;;;3.90;3.38;;;;;;;17.57;100.00;100212.06;4942880;29;20746;-73
2022/09/10 17:43:23;;;;;;;3.90;2.60;;;;;;;17.49;100.00;100210.81;4941673;29;20221;-71
2022/09/10 17:45:50;;;;;;;5.00;2.78;;;;;;;17.43;100.00;100205.84;4941162;29;20682;-74
2022/09/10 17:48:17;;;;;;;5.28;2.95;;;;;;;17.34;100.00;100216.56;4940644;29;20206;-72
2022/09/10 17:50:45;;;;;;;5.80;3.20;;;;;;;17.42;100.00;100214.16;4940021;29;20265;-72
2022/09/10 17:53:13;;;;;;;4.35;2.95;;;;;;;17.36;100.00;100209.16;4940648;29;20205;-73
2022/09/10 17:55:40;;;;;;;4.05;3.28;;;;;;;17.30;100.00;100218.69;4941472;29;20296;-72
2022/09/10 17:58:06;;;;;;;3.80;3.13;;;;;;;17.33;100.00;100212.13;4941389;29;20601;-71
2022/09/10 18:00:33;;;;;;;5.97;2.50;;;;;;;17.33;100.00;100213.00;4940640;29;20307;-70
2022/09/10 18:02:59;;;;;;;4.05;2.65;;;;;;;17.37;100.00;100211.78;4933883;29;20197;-69
2022/09/10 18:05:26;;;;;;;3.60;2.60;;;;;;;17.27;100.00;100210.72;4932343;29;20205;-72
2022/09/10 18:07:53;;;;;;;4.78;3.00;;;;;;;17.35;100.00;100208.31;4939956;29;20193;-73
2022/09/10 18:10:21;;;;;;;4.07;2.95;;;;;;;17.29;100.00;100212.34;4940195;29;20264;-69
2022/09/10 18:12:48;;;;;;;4.93;3.20;;;;;;;17.24;100.00;100214.56;4940377;29;20252;-72
2022/09/10 18:15:15;;;;;;;5.70;2.80;;;;;;;17.39;100.00;100215.25;4940071;29;20217;-71
2022/09/10 18:17:42;;;;;;;4.68;3.15;;;;;;;17.25;100.00;100212.69;4939495;29;20201;-69
2022/09/10 18:20:09;;;;;;;3.03;2.72;;;;;;;17.20;100.00;100220.34;4940252;29;20222;-71
2022/09/10 18:22:36;;;;;;;3.95;3.20;;;;;;;17.23;100.00;100222.84;4940368;29;20285;-72
2022/09/10 20:47:18;;;;;;;5.00;4.13;;;;;;;16.42;100.00;100284.09;5041060;23;20243;-74
2022/09/10 20:49:45;;;;;;;6.93;4.60;;;;;;;16.35;100.00;100291.81;4944321;29;20201;-74
2022/09/10 20:52:11;;;;;;;5.35;4.85;;;;;;;16.44;100.00;100283.00;4953415;29;20207;-75
2022/09/10 20:54:38;;;;;;;9.95;4.95;;;;;;;16.36;100.00;100289.94;4937819;29;20600;-74
2022/09/10 20:57:04;;;;;;;5.40;4.90;;;;;;;16.44;100.00;100290.28;4954950;29;20284;-74
2022/09/10 20:59:31;;;;;;;5.78;4.53;;;;;;;16.41;100.00;100291.34;4958439;29;20224;-75
2022/09/10 21:01:57;;;;;;;5.78;4.82;;;;;;;16.39;100.00;100295.16;4949989;29;20297;-75
2022/09/10 21:04:26;;;;;;;8.13;4.70;;;;;;;16.33;100.00;100304.63;4957142;29;20196;-73
2022/09/10 21:06:53;;;;;;;5.20;4.72;;;;;;;16.33;100.00;100303.78;4949694;29;20250;-75
2022/09/10 21:09:20;;;;;;;6.78;4.78;;;;;;;16.28;100.00;100306.81;4957592;29;20223;-75
2022/09/10 21:11:48;;;;;;;6.13;4.50;;;;;;;16.23;100.00;100314.41;4958043;28;20200;-73
2022/09/10 21:14:14;;;;;;;6.03;4.95;;;;;;;16.20;100.00;100311.91;4956765;29;20728;-75
2022/09/10 21:16:42;;;;;;;5.07;4.53;;;;;;;16.08;100.00;100308.22;4955572;29;20272;-75
2022/09/10 21:19:12;;;;;;;6.50;5.85;;;;;;;16.05;100.00;100309.28;4955523;29;20314;-75
2022/09/10 21:21:41;;;;;;;5.85;5.30;;;;;;;16.13;100.00;100319.63;4954512;29;20634;-75
2022/09/10 21:24:11;;;;;;;7.70;6.35;;;;;;;16.18;100.00;100306.56;4961678;29;20223;-74
2022/09/10 21:26:39;;;;;;;6.63;5.13;;;;;;;16.20;100.00;100307.34;4958067;29;20232;-74
2022/09/10 21:29:09;;;;;;;7.10;5.43;;;;;;;16.19;100.00;100304.72;4955000;29;20228;-72
2022/09/10 21:31:36;;;;;;;6.32;5.30;;;;;;;16.16;100.00;100308.53;4953913;29;20204;-75
2022/09/10 21:34:04;;;;;;;10.75;5.57;;;;;;;16.10;100.00;100308.97;4963218;29;20204;-74
2022/09/10 21:36:33;;;;;;;5.75;5.10;;;;;;;16.07;100.00;100311.88;4961269;29;20232;-73
2022/09/10 21:39:03;;;;;;;7.07;6.30;;;;;;;16.07;100.00;100319.16;4957707;29;20311;-74
2022/09/10 21:41:32;;;;;;;6.18;5.32;;;;;;;15.96;100.00;100320.78;4958483;29;20209;-74
2022/09/10 21:43:59;;;;;;;9.85;5.80;;;;;;;15.92;100.00;100324.69;4946097;29;20553;-73
2022/09/10 21:46:26;;;;;;;7.15;5.38;;;;;;;15.94;100.00;100325.47;4955740;29;20449;-74
2022/09/10 21:48:52;;;;;;;7.20;6.22;;;;;;;15.91;100.00;100312.06;4959215;29;20212;-73
2022/09/10 21:51:21;;;;;;;5.75;5.15;;;;;;;15.88;100.00;100320.44;4961201;29;20216;-73
2022/09/10 21:53:51;;;;;;;5.75;5.25;;;;;;;15.90;100.00;100323.94;4961903;29;20753;-73
2022/09/10 21:56:19;;;;;;;8.68;6.00;;;;;;;15.85;100.00;100317.94;4961388;29;20216;-72
2022/09/10 21:58:45;;;;;;;6.07;5.50;;;;;;;15.86;100.00;100325.13;4960309;29;20233;-75
2022/09/10 22:01:15;;;;;;;7.97;5.75;;;;;;;15.90;100.00;100336.66;4960357;29;20215;-73
2022/09/10 22:03:41;;;;;;;11.95;9.23;;;;;;;15.84;100.00;100344.22;4959609;29;20216;-72
2022/09/10 22:06:10;;;;;;;6.47;5.78;;;;;;;15.83;100.00;100330.75;4959018;29;20221;-73
2022/09/10 22:08:39;;;;;;;6.38;5.20;;;;;;;15.87;100.00;100336.84;4959904;29;20258;-74
2022/09/10 22:11:07;;;;;;;5.95;4.75;;;;;;;15.85;100.00;100336.94;4962087;29;20221;-72
2022/09/10 22:13:36;;;;;;;5.65;4.50;;;;;;;15.85;100.00;100345.09;4959828;29;20197;-73
2022/09/10 22:16:04;;;;;;;4.55;4.10;;;;;;;15.81;100.00;100340.84;4944008;29;20238;-73
2022/09/10 22:18:31;;;;;;;5.85;4.25;;;;;;;15.76;100.00;100341.19;4966025;29;20259;-73
2022/09/10 22:20:59;;;;;;;4.75;4.35;;;;;;;15.77;100.00;100337.47;4975167;29;20222;-73
2022/09/10 22:23:28;;;;;;;5.20;4.32;;;;;;;15.79;100.00;100345.53;4969482;28;20243;-73
2022/09/10 22:25:56;;;;;;;7.72;3.83;;;;;;;15.78;100.00;100343.75;4973598;29;20223;-74
2022/09/10 22:28:23;;;;;;;4.93;4.22;;;;;;;15.84;100.00;100352.38;4963329;29;20734;-73
2022/09/10 22:30:51;;;;;;;6.35;4.43;;;;;;;15.81;100.00;100352.59;4951685;29;20204;-74
2022/09/10 22:33:18;;;;;;;6.00;3.85;;;;;;;15.87;100.00;100351.28;4956703;29;20212;-73
2022/09/10 22:35:45;;;;;;;6.55;4.97;;;;;;;15.87;100.00;100356.72;4954713;29;20234;-76
2022/09/10 22:38:13;;;;;;;7.65;4.30;;;;;;;15.88;100.00;100363.91;4959151;29;20204;-73
2022/09/10 22:40:40;;;;;;;4.88;4.25;;;;;;;15.92;100.00;100360.00;4957650;29;20285;-76
2022/09/10 22:43:06;;;;;;;7.05;6.18;;;;;;;15.91;100.00;100360.09;4959084;29;20697;-75
2022/09/10 22:45:33;;;;;;;5.13;4.10;;;;;;;15.90;100.00;100359.25;4959382;29;20235;-73
2022/09/10 22:48:01;;;;;;;6.78;4.60;;;;;;;15.93;100.00;100358.16;4957104;29;20552;-74
2022/09/10 22:50:27;;;;;;;6.50;4.22;;;;;;;15.92;100.00;100368.16;4954830;29;20279;-75
2022/09/10 22:52:54;;;;;;;7.63;4.93;;;;;;;15.87;100.00;100359.44;4956792;29;20203;-75
2022/09/10 22:55:20;;;;;;;6.03;4.72;;;;;;;15.91;100.00;100365.53;4961934;29;20204;-74
2022/09/10 22:57:47;;;;;;;7.15;5.40;;;;;;;15.92;100.00;100361.81;4959768;29;20209;-75
2022/09/10 23:00:14;;;;;;;6.00;5.20;;;;;;;15.87;100.00;100359.44;4975132;28;21876;-74
2022/09/10 23:02:41;;;;;;;5.90;5.40;;;;;;;15.84;100.00;100365.06;4979552;28;20204;-73
2022/09/10 23:05:09;;;;;;;7.25;5.75;;;;;;;15.87;100.00;100359.44;4980826;28;20189;-73
2022/09/10 23:07:35;;;;;;;9.90;6.20;;;;;;;15.86;100.00;100367.69;4980309;28;20191;-72
2022/09/10 23:10:02;;;;;;;8.65;5.88;;;;;;;15.86;100.00;100374.00;4980256;28;20260;-73
2022/09/10 23:12:28;;;;;;;6.35;5.38;;;;;;;15.82;100.00;100380.59;4979251;28;20227;-73
2022/09/10 23:14:55;;;;;;;6.65;5.35;;;;;;;15.87;100.00;100383.00;4972250;28;20194;-72
2022/09/10 23:17:22;;;;;;;11.07;6.07;;;;;;;15.87;100.00;100377.56;4959273;28;20227;-73
2022/09/10 23:19:49;;;;;;;9.35;5.72;;;;;;;15.86;100.00;100379.44;4962218;29;20225;-74
2022/09/10 23:22:16;;;;;;;6.10;5.50;;;;;;;15.93;100.00;100382.59;4964957;29;20213;-75
2022/09/10 23:24:43;;;;;;;5.60;5.10;;;;;;;15.93;100.00;100385.31;4954005;29;20200;-76
2022/09/10 23:27:10;;;;;;;12.38;7.18;;;;;;;15.85;100.00;100380.38;4960581;29;20231;-74
2022/09/10 23:29:36;;;;;;;7.10;5.65;;;;;;;15.86;100.00;100376.72;4957610;29;20211;-73
2022/09/10 23:32:03;;;;;;;9.25;5.65;;;;;;;15.84;100.00;100382.22;4956505;29;20298;-74
2022/09/10 23:34:29;;;;;;;8.55;6.78;;;;;;;15.82;100.00;100384.19;4958580;28;20217;-73
2022/09/10 23:36:56;;;;;;;8.70;6.53;;;;;;;15.78;100.00;100384.50;4953363;29;20230;-74
2022/09/10 23:39:25;;;;;;;12.70;7.18;;;;;;;15.80;100.00;100382.53;4955199;29;20894;-75
2022/09/10 23:41:54;;;;;;;8.98;7.03;;;;;;;15.73;100.00;100392.94;4958379;29;20283;-75
2022/09/10 23:44:20;;;;;;;9.10;7.35;;;;;;;15.74;100.00;100394.72;4959219;29;20581;-74
2022/09/10 23:46:47;;;;;;;7.95;7.15;;;;;;;15.74;100.00;100393.84;4955305;29;20248;-73
2022/09/10 23:49:14;;;;;;;10.18;7.22;;;;;;;15.70;100.00;100385.00;4957304;29;20200;-75
2022/09/10 23:51:41;;;;;;;8.95;8.02;;;;;;;15.73;100.00;100386.66;4945471;29;20200;-75
2022/09/10 23:54:09;;;;;;;10.45;9.40;;;;;;;15.78;100.00;100384.50;4958144;29;20294;-75
2022/09/10 23:56:37;;;;;;;9.75;7.80;;;;;;;15.77;100.00;100390.91;4951000;29;20235;-75
2022/09/10 23:59:04;;;;;;;9.18;8.27;;;;;;;15.74;100.00;100394.72;4960508;29;20224;-74
